createdAt,value
2022-12-11T00:00:05.921Z,29.88
2022-12-11T00:00:18.065Z,31.98
2022-12-11T00:00:30.025Z,33.47
2022-12-11T00:00:41.923Z,32.63
2022-12-11T00:00:53.861Z,34.30
2022-12-11T00:01:10.819Z,35.05
2022-12-11T00:01:22.736Z,35.78
2022-12-11T00:01:34.669Z,35.75
2022-12-11T00:01:46.634Z,35.88
2022-12-11T00:01:58.659Z,35.90
2022-12-11T00:02:10.609Z,35.47
2022-12-11T00:02:22.740Z,35.63
2022-12-11T00:02:35.241Z,35.55
2022-12-11T00:02:47.254Z,37.47
2022-12-11T00:02:59.261Z,38.40
2022-12-11T00:03:15.840Z,37.30
2022-12-11T00:03:28.320Z,33.88
2022-12-11T00:03:40.439Z,32.70
2022-12-11T00:03:52.776Z,31.95
2022-12-11T00:04:04.781Z,31.67
2022-12-11T00:04:16.743Z,32.95
2022-12-11T00:04:28.743Z,32.67
2022-12-11T00:04:40.730Z,33.35
2022-12-11T00:04:52.647Z,32.60
2022-12-11T00:05:05.129Z,35.85
2022-12-11T00:05:17.153Z,35.92
2022-12-11T00:05:29.025Z,34.15
2022-12-11T00:05:41.748Z,31.58
2022-12-11T00:05:53.719Z,31.65
2022-12-11T00:06:10.723Z,32.55
2022-12-11T00:06:23.639Z,33.53
2022-12-11T00:06:35.914Z,33.65
2022-12-11T00:06:50.380Z,33.53
2022-12-11T00:07:02.333Z,32.72
2022-12-11T00:07:14.358Z,33.17
2022-12-11T00:07:26.288Z,34.78
2022-12-11T00:07:38.410Z,34.47
2022-12-11T00:07:50.463Z,33.45
2022-12-11T00:08:02.506Z,31.52
2022-12-11T00:08:14.483Z,31.50
2022-12-11T00:08:26.487Z,33.45
2022-12-11T00:08:39.139Z,33.85
2022-12-11T00:08:53.904Z,34.92
2022-12-11T00:09:05.794Z,35.50
2022-12-11T00:09:18.509Z,33.47
2022-12-11T00:09:30.447Z,34.05
2022-12-11T00:09:42.401Z,34.80
2022-12-11T00:09:54.347Z,33.95
2022-12-11T00:10:07.214Z,32.88
2022-12-11T00:10:19.149Z,32.35
2022-12-11T00:10:34.648Z,32.42
2022-12-11T00:10:50.027Z,35.00
2022-12-11T00:11:01.975Z,36.03
2022-12-11T00:11:16.479Z,34.58
2022-12-11T00:11:28.609Z,32.40
2022-12-11T00:11:40.534Z,30.83
2022-12-11T00:11:52.508Z,31.83
2022-12-11T00:12:05.215Z,33.95
2022-12-11T00:12:17.108Z,34.33
2022-12-11T00:12:30.589Z,32.70
2022-12-11T00:12:42.513Z,30.48
2022-12-11T00:12:54.442Z,30.52
2022-12-11T00:13:06.485Z,32.08
2022-12-11T00:13:18.419Z,31.17
2022-12-11T00:13:30.357Z,30.30
2022-12-11T00:13:42.791Z,29.10
2022-12-11T00:13:54.980Z,30.30
2022-12-11T00:14:06.861Z,33.03
2022-12-11T00:14:18.841Z,35.35
2022-12-11T00:14:31.846Z,35.58
2022-12-11T00:14:44.159Z,35.22
2022-12-11T00:14:56.128Z,37.17
2022-12-11T00:15:08.965Z,37.55
2022-12-11T00:15:21.152Z,35.55
2022-12-11T00:15:33.246Z,34.38
2022-12-11T00:15:45.201Z,36.63
2022-12-11T00:16:00.221Z,37.17
2022-12-11T00:16:12.550Z,41.65
2022-12-11T00:16:27.171Z,43.95
2022-12-11T00:16:39.799Z,40.05
2022-12-11T00:16:51.836Z,37.42
2022-12-11T00:17:03.869Z,36.72
2022-12-11T00:17:15.841Z,38.53
2022-12-11T00:17:27.740Z,37.55
2022-12-11T00:17:39.686Z,37.90
2022-12-11T00:17:51.687Z,38.80
2022-12-11T00:18:03.631Z,40.72
2022-12-11T00:18:15.587Z,38.63
2022-12-11T00:18:27.597Z,38.65
2022-12-11T00:18:39.633Z,36.90
2022-12-11T00:18:51.588Z,35.15
2022-12-11T00:19:03.628Z,34.92
2022-12-11T00:19:16.164Z,35.58
2022-12-11T00:19:28.128Z,35.22
2022-12-11T00:19:40.080Z,34.83
2022-12-11T00:19:52.042Z,34.97
2022-12-11T00:20:05.053Z,34.30
2022-12-11T00:20:17.185Z,34.08
2022-12-11T00:20:29.122Z,33.70
2022-12-11T00:20:41.297Z,33.63
2022-12-11T00:20:53.240Z,33.78
2022-12-11T00:21:08.782Z,34.70
2022-12-11T00:21:20.696Z,32.63
2022-12-11T00:21:33.032Z,31.60
2022-12-11T00:21:45.019Z,33.67
2022-12-11T00:21:57.418Z,35.83
2022-12-11T00:22:09.336Z,33.92
2022-12-11T00:22:21.322Z,32.83
2022-12-11T00:22:33.568Z,31.10
2022-12-11T00:22:45.552Z,30.90
2022-12-11T00:22:57.496Z,32.08
2022-12-11T00:23:10.796Z,32.45
2022-12-11T00:23:22.783Z,31.42
2022-12-11T00:23:36.466Z,31.00
2022-12-11T00:23:48.390Z,31.67
2022-12-11T00:24:00.683Z,32.28
2022-12-11T00:24:12.829Z,34.20
2022-12-11T00:24:24.969Z,33.75
2022-12-11T00:24:36.897Z,32.95
2022-12-11T00:24:48.826Z,31.52
2022-12-11T00:25:00.749Z,31.58
2022-12-11T00:25:12.940Z,31.92
2022-12-11T00:25:24.987Z,33.13
2022-12-11T00:25:44.116Z,33.95
2022-12-11T00:25:56.781Z,32.20
2022-12-11T00:26:11.965Z,32.00
2022-12-11T00:26:24.003Z,31.63
2022-12-11T00:26:35.939Z,31.05
2022-12-11T00:26:47.882Z,30.83
2022-12-11T00:26:59.882Z,31.35
2022-12-11T00:27:11.813Z,32.45
2022-12-11T00:27:24.157Z,33.10
2022-12-11T00:27:36.235Z,34.63
2022-12-11T00:27:48.269Z,34.63
2022-12-11T00:28:00.173Z,33.80
2022-12-11T00:28:18.811Z,33.28
2022-12-11T00:28:30.752Z,33.30
2022-12-11T00:28:43.752Z,33.22
2022-12-11T00:28:57.040Z,33.47
2022-12-11T00:29:14.273Z,33.88
2022-12-11T00:29:26.203Z,34.55
2022-12-11T00:29:38.099Z,32.53
2022-12-11T00:29:50.082Z,30.73
2022-12-11T00:30:02.058Z,30.23
2022-12-11T00:30:14.496Z,29.17
2022-12-11T00:30:26.394Z,29.88
2022-12-11T00:30:40.623Z,30.83
2022-12-11T00:30:52.645Z,30.02
2022-12-11T00:31:06.593Z,30.85
2022-12-11T00:31:19.301Z,30.63
2022-12-11T00:31:31.545Z,30.85
2022-12-11T00:31:44.528Z,32.15
2022-12-11T00:31:56.608Z,32.67
2022-12-11T00:32:08.828Z,32.67
2022-12-11T00:32:20.932Z,31.67
2022-12-11T00:32:37.436Z,30.38
2022-12-11T00:32:51.784Z,30.27
2022-12-11T00:33:03.702Z,32.40
2022-12-11T00:33:16.507Z,32.67
2022-12-11T00:33:28.390Z,32.90
2022-12-11T00:33:40.435Z,31.25
2022-12-11T00:33:52.817Z,30.90
2022-12-11T00:34:04.754Z,31.88
2022-12-11T00:34:17.203Z,32.85
2022-12-11T00:34:29.169Z,32.00
2022-12-11T00:34:41.125Z,30.92
2022-12-11T00:34:53.444Z,31.13
2022-12-11T00:35:05.659Z,32.58
2022-12-11T00:35:17.680Z,34.85
2022-12-11T00:35:29.866Z,36.22
2022-12-11T00:35:44.734Z,33.83
2022-12-11T00:35:56.739Z,31.92
2022-12-11T00:36:24.389Z,30.55
2022-12-11T00:36:36.307Z,31.50
2022-12-11T00:36:48.235Z,31.88
2022-12-11T00:37:00.224Z,32.25
2022-12-11T00:37:12.292Z,30.35
2022-12-11T00:37:24.527Z,30.65
2022-12-11T00:37:36.652Z,31.45
2022-12-11T00:37:48.642Z,32.60
2022-12-11T00:38:00.551Z,32.90
2022-12-11T00:38:20.961Z,33.35
2022-12-11T00:38:32.847Z,31.75
2022-12-11T00:38:44.803Z,29.38
2022-12-11T00:38:56.922Z,29.13
2022-12-11T00:39:08.878Z,28.67
2022-12-11T00:39:20.801Z,30.60
2022-12-11T00:39:32.753Z,32.22
2022-12-11T00:39:45.473Z,33.20
2022-12-11T00:39:57.431Z,34.47
2022-12-11T00:40:10.079Z,33.95
2022-12-11T00:40:22.027Z,31.25
2022-12-11T00:40:37.291Z,30.75
2022-12-11T00:40:49.193Z,29.88
2022-12-11T00:41:01.149Z,30.08
2022-12-11T00:41:13.067Z,30.45
2022-12-11T00:41:25.372Z,31.23
2022-12-11T00:41:37.280Z,32.05
2022-12-11T00:41:49.215Z,30.98
2022-12-11T00:42:01.193Z,29.45
2022-12-11T00:42:13.190Z,29.05
2022-12-11T00:42:25.131Z,30.02
2022-12-11T00:42:37.064Z,31.60
2022-12-11T00:42:49.035Z,31.73
2022-12-11T00:43:01.292Z,30.42
2022-12-11T00:43:14.402Z,30.25
2022-12-11T00:43:26.304Z,29.40
2022-12-11T00:43:38.679Z,29.83
2022-12-11T00:43:50.838Z,29.60
2022-12-11T00:44:02.886Z,29.05
2022-12-11T00:44:14.886Z,31.25
2022-12-11T00:44:26.790Z,31.85
2022-12-11T00:44:38.679Z,31.25
2022-12-11T00:44:50.857Z,31.73
2022-12-11T00:45:03.533Z,31.27
2022-12-11T00:45:15.724Z,30.88
2022-12-11T00:45:27.693Z,30.33
2022-12-11T00:45:43.333Z,30.48
2022-12-11T00:45:55.288Z,30.55
2022-12-11T00:46:07.414Z,31.20
2022-12-11T00:46:19.453Z,32.03
2022-12-11T00:46:31.507Z,31.17
2022-12-11T00:46:43.467Z,31.33
2022-12-11T00:46:55.445Z,31.83
2022-12-11T00:47:08.432Z,32.83
2022-12-11T00:47:20.323Z,30.38
2022-12-11T00:47:32.388Z,27.98
2022-12-11T00:47:44.333Z,29.05
2022-12-11T00:47:56.227Z,30.35
2022-12-11T00:48:08.957Z,30.75
2022-12-11T00:48:21.066Z,30.20
2022-12-11T00:48:33.474Z,29.48
2022-12-11T00:48:46.280Z,29.65
2022-12-11T00:48:58.383Z,31.92
2022-12-11T00:49:10.357Z,33.33
2022-12-11T00:49:22.251Z,34.80
2022-12-11T00:49:34.226Z,35.22
2022-12-11T00:49:49.803Z,35.38
2022-12-11T00:50:02.541Z,33.10
2022-12-11T00:50:14.604Z,33.28
2022-12-11T00:50:26.505Z,33.35
2022-12-11T00:50:39.201Z,32.92
2022-12-11T00:50:51.079Z,32.67
2022-12-11T00:51:03.115Z,34.33
2022-12-11T00:51:15.424Z,35.58
2022-12-11T00:51:27.433Z,34.90
2022-12-11T00:51:39.357Z,35.05
2022-12-11T00:51:51.346Z,36.60
2022-12-11T00:52:03.412Z,38.15
2022-12-11T00:52:17.623Z,37.25
2022-12-11T00:52:29.901Z,37.03
2022-12-11T00:52:41.842Z,37.05
2022-12-11T00:52:53.774Z,35.20
2022-12-11T00:53:06.806Z,33.80
2022-12-11T00:53:18.784Z,34.72
2022-12-11T00:53:30.712Z,34.20
2022-12-11T00:53:42.800Z,34.85
2022-12-11T00:53:54.782Z,34.75
2022-12-11T00:54:06.714Z,35.28
2022-12-11T00:54:18.798Z,37.28
2022-12-11T00:54:30.744Z,37.70
2022-12-11T00:54:42.646Z,36.80
2022-12-11T00:54:54.590Z,34.92
2022-12-11T00:55:06.912Z,34.53
2022-12-11T00:55:18.838Z,35.97
2022-12-11T00:55:30.776Z,36.97
2022-12-11T00:55:43.462Z,37.50
2022-12-11T00:55:55.373Z,35.92
2022-12-11T00:56:19.265Z,34.75
2022-12-11T00:56:31.188Z,33.85
2022-12-11T00:56:43.219Z,34.95
2022-12-11T00:56:55.886Z,35.58
2022-12-11T00:57:07.776Z,36.15
2022-12-11T00:57:29.871Z,37.67
2022-12-11T00:57:41.768Z,38.28
2022-12-11T00:57:54.017Z,38.03
2022-12-11T00:58:06.410Z,37.97
2022-12-11T00:58:18.479Z,36.85
2022-12-11T00:58:30.406Z,37.42
2022-12-11T00:58:42.512Z,35.25
2022-12-11T00:58:54.526Z,32.97
2022-12-11T00:59:06.552Z,34.42
2022-12-11T00:59:18.489Z,36.25
2022-12-11T00:59:30.445Z,36.90
2022-12-11T00:59:42.342Z,34.35
2022-12-11T00:59:54.231Z,33.53
2022-12-11T01:00:07.071Z,34.40
2022-12-11T01:00:19.384Z,35.60
2022-12-11T01:00:31.448Z,34.80
2022-12-11T01:00:44.315Z,35.92
2022-12-11T01:01:05.724Z,33.55
2022-12-11T01:01:21.099Z,31.55
2022-12-11T01:01:33.379Z,32.38
2022-12-11T01:01:45.383Z,31.65
2022-12-11T01:01:57.326Z,31.55
2022-12-11T01:02:09.254Z,34.85
2022-12-11T01:02:21.470Z,36.20
2022-12-11T01:02:34.314Z,34.58
2022-12-11T01:02:46.421Z,33.08
2022-12-11T01:02:58.429Z,32.40
2022-12-11T01:03:13.177Z,31.60
2022-12-11T01:03:25.146Z,34.70
2022-12-11T01:03:37.723Z,34.10
2022-12-11T01:03:50.073Z,33.60
2022-12-11T01:04:02.013Z,30.55
2022-12-11T01:04:13.933Z,32.00
2022-12-11T01:04:25.852Z,33.10
2022-12-11T01:04:37.792Z,34.00
2022-12-11T01:04:49.818Z,33.95
2022-12-11T01:05:01.747Z,33.42
2022-12-11T01:05:13.735Z,31.90
2022-12-11T01:05:25.730Z,32.30
2022-12-11T01:05:37.735Z,37.35
2022-12-11T01:05:54.479Z,39.88
2022-12-11T01:06:07.378Z,37.15
2022-12-11T01:06:23.023Z,36.55
2022-12-11T01:06:35.317Z,37.15
2022-12-11T01:06:47.217Z,37.90
2022-12-11T01:06:59.128Z,37.88
2022-12-11T01:07:11.070Z,37.30
2022-12-11T01:07:23.072Z,38.40
2022-12-11T01:07:34.983Z,39.90
2022-12-11T01:07:46.988Z,41.33
2022-12-11T01:07:59.093Z,38.40
2022-12-11T01:08:11.026Z,37.13
2022-12-11T01:08:23.074Z,36.63
2022-12-11T01:08:38.505Z,35.38
2022-12-11T01:09:13.987Z,36.88
2022-12-11T01:10:04.170Z,35.08
2022-12-11T01:10:25.509Z,34.20
2022-12-11T01:10:37.590Z,35.53
2022-12-11T01:10:49.544Z,30.95
2022-12-11T01:11:06.683Z,30.50
2022-12-11T01:11:18.631Z,33.45
2022-12-11T01:11:30.548Z,32.90
2022-12-11T01:11:43.335Z,34.47
2022-12-11T01:11:55.234Z,33.70
2022-12-11T01:12:07.209Z,33.03
2022-12-11T01:12:19.155Z,31.92
2022-12-11T01:12:31.088Z,33.42
2022-12-11T01:12:42.966Z,32.17
2022-12-11T01:13:13.825Z,31.00
2022-12-11T01:13:25.738Z,32.92
2022-12-11T01:13:39.095Z,30.00
2022-12-11T01:13:51.027Z,29.30
2022-12-11T01:14:03.479Z,29.73
2022-12-11T01:14:15.444Z,30.27
2022-12-11T01:14:27.921Z,32.70
2022-12-11T01:14:39.860Z,32.97
2022-12-11T01:14:51.846Z,32.47
2022-12-11T01:15:04.028Z,31.45
2022-12-11T01:15:16.070Z,31.98
2022-12-11T01:15:31.858Z,30.45
2022-12-11T01:15:45.336Z,29.80
2022-12-11T01:15:57.338Z,30.70
2022-12-11T01:16:12.149Z,30.40
2022-12-11T01:16:24.158Z,31.35
2022-12-11T01:16:36.523Z,32.25
2022-12-11T01:16:48.480Z,33.72
2022-12-11T01:17:00.478Z,34.08
2022-12-11T01:17:12.437Z,31.48
2022-12-11T01:17:24.448Z,30.23
2022-12-11T01:17:36.335Z,29.95
2022-12-11T01:17:48.920Z,30.42
2022-12-11T01:18:00.888Z,32.55
2022-12-11T01:18:15.322Z,33.60
2022-12-11T01:18:27.292Z,33.25
2022-12-11T01:18:39.515Z,31.30
2022-12-11T01:18:51.447Z,32.42
2022-12-11T01:19:03.881Z,34.30
2022-12-11T01:19:15.983Z,34.25
2022-12-11T01:19:28.518Z,32.28
2022-12-11T01:19:40.501Z,30.98
2022-12-11T01:19:55.572Z,31.67
2022-12-11T01:20:08.094Z,34.17
2022-12-11T01:20:21.512Z,35.53
2022-12-11T01:20:33.505Z,34.13
2022-12-11T01:20:45.463Z,33.22
2022-12-11T01:20:57.362Z,35.90
2022-12-11T01:21:12.405Z,36.60
2022-12-11T01:21:24.687Z,34.58
2022-12-11T01:21:36.609Z,36.60
2022-12-11T01:21:48.540Z,37.60
2022-12-11T01:22:00.484Z,35.75
2022-12-11T01:22:12.378Z,32.67
2022-12-11T01:22:24.251Z,31.75
2022-12-11T01:22:36.123Z,33.80
2022-12-11T01:22:48.308Z,35.65
2022-12-11T01:23:00.984Z,36.63
2022-12-11T01:23:13.794Z,34.40
2022-12-11T01:23:25.719Z,34.42
2022-12-11T01:23:38.328Z,37.22
2022-12-11T01:23:51.416Z,40.13
2022-12-11T01:24:03.541Z,37.35
2022-12-11T01:24:15.490Z,35.33
2022-12-11T01:24:27.386Z,35.25
2022-12-11T01:24:39.322Z,35.63
2022-12-11T01:24:51.243Z,35.25
2022-12-11T01:25:04.067Z,35.42
2022-12-11T01:25:16.954Z,36.50
2022-12-11T01:25:29.190Z,37.60
2022-12-11T01:25:42.041Z,35.72
2022-12-11T01:25:53.983Z,34.30
2022-12-11T01:26:11.479Z,35.90
2022-12-11T01:26:23.505Z,35.90
2022-12-11T01:26:35.974Z,33.03
2022-12-11T01:26:47.903Z,31.67
2022-12-11T01:26:59.836Z,34.85
2022-12-11T01:27:11.839Z,37.42
2022-12-11T01:27:23.754Z,37.08
2022-12-11T01:27:36.234Z,33.90
2022-12-11T01:27:51.616Z,34.40
2022-12-11T01:28:04.390Z,37.30
2022-12-11T01:28:16.291Z,36.90
2022-12-11T01:28:28.171Z,37.20
2022-12-11T01:28:42.762Z,38.25
2022-12-11T01:28:54.694Z,41.97
2022-12-11T01:29:06.580Z,43.88
2022-12-11T01:29:18.578Z,42.97
2022-12-11T01:29:30.776Z,42.28
2022-12-11T01:29:42.662Z,42.45
2022-12-11T01:29:54.574Z,42.63
2022-12-11T01:30:08.129Z,41.33
2022-12-11T01:30:21.834Z,39.47
2022-12-11T01:30:34.286Z,39.40
2022-12-11T01:30:46.295Z,40.03
2022-12-11T01:30:58.377Z,39.83
2022-12-11T01:31:13.081Z,38.42
2022-12-11T01:31:25.106Z,39.90
2022-12-11T01:31:38.309Z,39.95
2022-12-11T01:31:50.189Z,45.80
2022-12-11T01:32:02.105Z,48.50
2022-12-11T01:32:14.011Z,45.30
2022-12-11T01:32:27.598Z,43.40
2022-12-11T01:32:39.561Z,43.08
2022-12-11T01:32:52.165Z,40.78
2022-12-11T01:33:04.322Z,38.30
2022-12-11T01:33:16.244Z,37.33
2022-12-11T01:33:28.990Z,35.67
2022-12-11T01:33:41.401Z,36.78
2022-12-11T01:33:56.557Z,36.92
2022-12-11T01:34:08.465Z,39.20
2022-12-11T01:34:20.648Z,42.40
2022-12-11T01:34:33.344Z,43.65
2022-12-11T01:34:45.237Z,43.35
2022-12-11T01:34:57.252Z,42.17
2022-12-11T01:35:10.919Z,40.75
2022-12-11T01:35:23.329Z,40.63
2022-12-11T01:35:35.299Z,40.58
2022-12-11T01:35:47.181Z,41.38
2022-12-11T01:35:59.422Z,38.72
2022-12-11T01:36:15.154Z,38.63
2022-12-11T01:36:27.107Z,39.22
2022-12-11T01:36:39.026Z,37.58
2022-12-11T01:36:52.229Z,36.97
2022-12-11T01:37:04.145Z,35.70
2022-12-11T01:37:16.106Z,37.40
2022-12-11T01:37:28.004Z,38.42
2022-12-11T01:37:40.221Z,38.30
2022-12-11T01:37:52.146Z,36.40
2022-12-11T01:38:04.067Z,36.92
2022-12-11T01:38:15.944Z,37.80
2022-12-11T01:38:27.851Z,38.20
2022-12-11T01:38:40.033Z,37.90
2022-12-11T01:38:54.262Z,35.65
2022-12-11T01:39:06.219Z,34.03
2022-12-11T01:39:18.107Z,34.30
2022-12-11T01:39:30.044Z,35.63
2022-12-11T01:39:41.959Z,37.83
2022-12-11T01:39:53.846Z,38.83
2022-12-11T01:40:07.866Z,37.63
2022-12-11T01:40:21.146Z,36.33
2022-12-11T01:40:33.038Z,37.80
2022-12-11T01:40:49.549Z,38.60
2022-12-11T01:41:01.509Z,37.00
2022-12-11T01:41:14.141Z,35.15
2022-12-11T01:41:26.147Z,32.83
2022-12-11T01:41:38.165Z,33.13
2022-12-11T01:41:50.337Z,36.75
2022-12-11T01:42:02.349Z,36.88
2022-12-11T01:42:23.099Z,35.72
2022-12-11T01:42:35.694Z,35.88
2022-12-11T01:42:47.857Z,33.42
2022-12-11T01:42:59.781Z,33.80
2022-12-11T01:43:11.687Z,33.22
2022-12-11T01:43:23.655Z,32.55
2022-12-11T01:43:55.341Z,32.65
2022-12-11T01:44:27.248Z,33.42
2022-12-11T01:44:39.177Z,33.60
2022-12-11T01:44:51.093Z,34.08
2022-12-11T01:45:21.511Z,33.88
2022-12-11T01:45:44.587Z,35.42
2022-12-11T01:45:56.610Z,32.63
2022-12-11T01:46:08.579Z,33.67
2022-12-11T01:46:20.544Z,35.75
2022-12-11T01:46:35.053Z,34.70
2022-12-11T01:46:46.951Z,31.20
2022-12-11T01:46:58.849Z,30.73
2022-12-11T01:47:11.291Z,31.20
2022-12-11T01:47:23.228Z,32.15
2022-12-11T01:47:35.191Z,32.65
2022-12-11T01:47:48.599Z,33.53
2022-12-11T01:48:10.679Z,33.22
2022-12-11T01:48:25.569Z,34.60
2022-12-11T01:48:42.174Z,34.45
2022-12-11T01:48:55.189Z,33.55
2022-12-11T01:49:14.049Z,32.83
2022-12-11T01:49:27.430Z,33.85
2022-12-11T01:49:40.998Z,33.25
2022-12-11T01:49:52.901Z,33.67
2022-12-11T01:50:05.311Z,35.05
2022-12-11T01:50:18.610Z,35.30
2022-12-11T01:50:34.092Z,35.80
2022-12-11T01:50:50.716Z,37.30
2022-12-11T01:51:05.172Z,33.05
2022-12-11T01:51:17.542Z,31.75
2022-12-11T01:51:33.277Z,33.03
2022-12-11T01:51:53.234Z,32.80
2022-12-11T01:52:15.272Z,31.83
2022-12-11T01:52:27.289Z,34.78
2022-12-11T01:52:40.026Z,37.58
2022-12-11T01:52:52.373Z,37.17
2022-12-11T01:53:08.101Z,35.05
2022-12-11T01:53:25.189Z,35.17
2022-12-11T01:53:41.647Z,36.58
2022-12-11T01:54:01.858Z,36.35
2022-12-11T01:54:17.277Z,36.00
2022-12-11T01:54:30.369Z,36.65
2022-12-11T01:54:43.490Z,34.83
2022-12-11T01:54:55.563Z,32.53
2022-12-11T01:55:09.547Z,34.10
2022-12-11T01:55:22.107Z,36.38
2022-12-11T01:55:34.528Z,36.38
2022-12-11T01:55:48.344Z,36.03
2022-12-11T01:56:01.122Z,35.92
2022-12-11T01:56:13.136Z,34.05
2022-12-11T01:56:25.120Z,32.72
2022-12-11T01:56:38.000Z,32.53
2022-12-11T01:56:53.135Z,32.35
2022-12-11T01:57:08.459Z,31.90
2022-12-11T01:57:20.396Z,30.65
2022-12-11T01:57:32.400Z,28.95
2022-12-11T01:57:47.315Z,29.38
2022-12-11T01:57:59.321Z,30.77
2022-12-11T01:58:13.070Z,32.15
2022-12-11T01:58:32.118Z,34.75
2022-12-11T01:58:51.463Z,33.63
2022-12-11T01:59:07.418Z,30.65
2022-12-11T01:59:23.885Z,29.70
2022-12-11T01:59:39.879Z,32.40
2022-12-11T01:59:51.919Z,33.55
2022-12-11T02:00:05.111Z,31.52
2022-12-11T02:00:17.432Z,31.58
2022-12-11T02:00:29.396Z,32.83
2022-12-11T02:00:41.328Z,31.60
2022-12-11T02:00:54.580Z,30.48
2022-12-11T02:01:06.571Z,30.55
2022-12-11T02:01:36.826Z,33.53
2022-12-11T02:02:04.644Z,32.90
2022-12-11T02:02:22.385Z,32.58
2022-12-11T02:02:34.332Z,35.58
2022-12-11T02:02:46.386Z,39.40
2022-12-11T02:02:58.384Z,40.55
2022-12-11T02:03:10.307Z,38.65
2022-12-11T02:03:22.801Z,34.55
2022-12-11T02:03:34.743Z,31.00
2022-12-11T02:03:46.739Z,33.38
2022-12-11T02:03:59.565Z,34.20
2022-12-11T02:04:12.221Z,32.45
2022-12-11T02:04:24.559Z,31.15
2022-12-11T02:04:38.952Z,32.53
2022-12-11T02:04:50.924Z,32.83
2022-12-11T02:05:05.613Z,31.63
2022-12-11T02:05:17.634Z,31.48
2022-12-11T02:05:29.669Z,31.85
2022-12-11T02:05:41.894Z,31.88
2022-12-11T02:05:53.839Z,31.92
2022-12-11T02:06:05.982Z,30.75
2022-12-11T02:06:51.929Z,32.72
2022-12-11T02:07:04.143Z,32.92
2022-12-11T02:07:16.215Z,32.88
2022-12-11T02:07:31.614Z,32.22
2022-12-11T02:07:48.219Z,30.63
2022-12-11T02:08:02.967Z,29.98
2022-12-11T02:08:15.833Z,30.20
2022-12-11T02:08:28.254Z,33.10
2022-12-11T02:08:40.195Z,33.97
2022-12-11T02:08:52.062Z,32.45
2022-12-11T02:09:07.662Z,30.83
2022-12-11T02:09:25.210Z,31.07
2022-12-11T02:09:40.053Z,30.75
2022-12-11T02:09:52.064Z,30.38
2022-12-11T02:10:04.867Z,29.98
2022-12-11T02:10:17.433Z,31.35
2022-12-11T02:10:48.233Z,31.50
2022-12-11T02:11:10.663Z,32.38
2022-12-11T02:11:28.359Z,32.25
2022-12-11T02:11:58.840Z,29.77
2022-12-11T02:12:26.382Z,29.67
2022-12-11T02:12:57.519Z,29.88
2022-12-11T02:13:17.840Z,30.83
2022-12-11T02:13:47.961Z,31.15
2022-12-11T02:14:12.881Z,29.40
2022-12-11T02:14:37.510Z,30.45
2022-12-11T02:15:14.112Z,29.73
2022-12-11T02:15:35.706Z,29.08
2022-12-11T02:15:56.791Z,29.17
2022-12-11T02:16:53.496Z,27.88
2022-12-11T02:17:14.288Z,30.95
2022-12-11T02:17:35.736Z,29.25
2022-12-11T02:18:02.791Z,28.88
2022-12-11T02:18:14.718Z,29.67
2022-12-11T02:18:42.163Z,30.27
2022-12-11T02:19:02.943Z,31.02
2022-12-11T02:19:38.893Z,30.05
2022-12-11T02:20:15.386Z,27.13
2022-12-11T02:21:11.818Z,30.55
2022-12-11T02:21:27.997Z,30.20
2022-12-11T02:21:50.698Z,33.25
2022-12-11T02:22:08.835Z,32.53
2022-12-11T02:23:05.106Z,31.58
2022-12-11T02:23:26.311Z,29.33
2022-12-11T02:24:00.264Z,27.92
2022-12-11T02:24:45.226Z,29.92
2022-12-11T02:24:59.974Z,32.03
2022-12-11T02:25:25.615Z,30.38
2022-12-11T02:26:10.638Z,32.28
2022-12-11T02:26:45.595Z,28.02
2022-12-11T02:27:15.837Z,30.25
2022-12-11T02:27:44.802Z,27.13
2022-12-11T02:28:14.720Z,29.58
2022-12-11T02:28:43.214Z,29.55
2022-12-11T02:29:01.105Z,28.60
2022-12-11T02:29:20.681Z,30.15
2022-12-11T02:29:38.977Z,29.45
2022-12-11T02:30:05.994Z,28.83
2022-12-11T02:30:18.088Z,28.52
2022-12-11T02:30:31.312Z,29.80
2022-12-11T02:30:50.167Z,30.80
2022-12-11T02:32:00.381Z,29.80
2022-12-11T02:32:23.124Z,31.55
2022-12-11T02:32:55.305Z,29.25
2022-12-11T02:33:09.552Z,28.50
2022-12-11T02:33:26.601Z,30.05
2022-12-11T02:33:47.081Z,30.95
2022-12-11T02:34:08.822Z,29.83
2022-12-11T02:34:29.126Z,26.83
2022-12-11T02:34:49.310Z,30.75
2022-12-11T02:35:12.687Z,31.00
2022-12-11T02:35:24.783Z,30.67
2022-12-11T02:35:42.471Z,31.23
2022-12-11T02:35:54.906Z,31.40
2022-12-11T02:36:09.770Z,30.25
2022-12-11T02:36:25.361Z,29.48
2022-12-11T02:36:41.670Z,28.25
2022-12-11T02:37:00.520Z,26.77
2022-12-11T02:37:21.382Z,28.13
2022-12-11T02:37:37.346Z,30.02
2022-12-11T02:37:57.959Z,30.35
2022-12-11T02:38:19.662Z,31.33
2022-12-11T02:38:36.951Z,29.95
2022-12-11T02:38:53.135Z,29.83
2022-12-11T02:39:07.453Z,31.73
2022-12-11T02:39:22.397Z,31.70
2022-12-11T02:39:38.708Z,30.05
2022-12-11T02:39:53.977Z,30.00
2022-12-11T02:40:10.941Z,29.40
2022-12-11T02:40:26.635Z,29.63
2022-12-11T02:40:41.216Z,33.47
2022-12-11T02:40:56.270Z,34.72
2022-12-11T02:41:10.532Z,33.90
2022-12-11T02:41:24.120Z,34.30
2022-12-11T02:41:36.755Z,34.20
2022-12-11T02:41:50.764Z,32.35
2022-12-11T02:42:04.740Z,30.95
2022-12-11T02:42:19.560Z,32.53
2022-12-11T02:42:33.165Z,32.67
2022-12-11T02:42:48.122Z,30.83
2022-12-11T02:43:04.656Z,30.35
2022-12-11T02:43:18.136Z,31.98
2022-12-11T02:43:32.268Z,31.35
2022-12-11T02:43:45.477Z,30.10
2022-12-11T02:43:59.114Z,31.65
2022-12-11T02:44:14.534Z,33.63
2022-12-11T02:44:30.372Z,35.47
2022-12-11T02:44:44.492Z,31.70
2022-12-11T02:44:59.080Z,30.00
2022-12-11T02:45:13.312Z,29.77
2022-12-11T02:45:27.225Z,32.95
2022-12-11T02:45:41.481Z,34.47
2022-12-11T02:45:54.187Z,31.15
2022-12-11T02:46:07.956Z,31.60
2022-12-11T02:46:21.722Z,31.65
2022-12-11T02:46:35.547Z,33.70
2022-12-11T02:46:47.612Z,34.70
2022-12-11T02:47:00.587Z,31.58
2022-12-11T02:47:16.691Z,31.08
2022-12-11T02:47:32.031Z,33.97
2022-12-11T02:47:47.674Z,33.05
2022-12-11T02:48:02.858Z,31.60
2022-12-11T02:48:17.230Z,32.08
2022-12-11T02:48:30.242Z,33.70
2022-12-11T02:48:44.118Z,33.78
2022-12-11T02:48:57.759Z,32.42
2022-12-11T02:49:11.690Z,32.85
2022-12-11T02:49:24.435Z,31.60
2022-12-11T02:49:36.626Z,32.95
2022-12-11T02:49:50.528Z,34.15
2022-12-11T02:50:07.582Z,34.83
2022-12-11T02:50:23.424Z,34.40
2022-12-11T02:50:37.939Z,32.00
2022-12-11T02:50:55.952Z,32.10
2022-12-11T02:51:10.303Z,34.47
2022-12-11T02:51:26.919Z,34.65
2022-12-11T02:51:41.907Z,34.92
2022-12-11T02:51:56.576Z,34.22
2022-12-11T02:52:12.393Z,34.42
2022-12-11T02:52:27.546Z,35.30
2022-12-11T02:52:41.897Z,35.53
2022-12-11T02:52:56.271Z,35.33
2022-12-11T02:53:12.254Z,33.78
2022-12-11T02:53:28.576Z,33.90
2022-12-11T02:53:44.035Z,33.47
2022-12-11T02:53:58.999Z,32.28
2022-12-11T02:54:16.910Z,33.97
2022-12-11T02:54:33.389Z,35.90
2022-12-11T02:54:47.496Z,35.38
2022-12-11T02:55:01.705Z,34.33
2022-12-11T02:55:15.847Z,35.08
2022-12-11T02:55:29.844Z,36.55
2022-12-11T02:55:45.573Z,36.35
2022-12-11T02:56:06.910Z,35.03
2022-12-11T02:56:30.808Z,36.88
2022-12-11T02:56:57.143Z,35.10
2022-12-11T02:57:14.547Z,34.63
2022-12-11T02:57:35.905Z,36.17
2022-12-11T02:57:52.769Z,37.42
2022-12-11T02:58:28.236Z,40.13
2022-12-11T02:58:49.929Z,39.65
2022-12-11T02:59:09.114Z,37.25
2022-12-11T02:59:26.782Z,38.30
2022-12-11T02:59:43.718Z,40.08
2022-12-11T02:59:55.778Z,39.13
2022-12-11T03:00:08.892Z,37.85
2022-12-11T03:00:21.858Z,36.78
2022-12-11T03:00:34.453Z,35.63
2022-12-11T03:00:46.669Z,38.05
2022-12-11T03:00:58.748Z,40.72
2022-12-11T03:01:10.764Z,38.80
2022-12-11T03:01:22.789Z,36.20
2022-12-11T03:01:34.905Z,36.45
2022-12-11T03:01:47.841Z,36.95
2022-12-11T03:02:00.487Z,35.03
2022-12-11T03:02:15.028Z,34.67
2022-12-11T03:02:27.329Z,34.88
2022-12-11T03:02:40.567Z,35.63
2022-12-11T03:02:52.618Z,36.20
2022-12-11T03:03:05.155Z,37.13
2022-12-11T03:03:17.359Z,38.10
2022-12-11T03:03:30.696Z,36.90
2022-12-11T03:03:42.719Z,37.55
2022-12-11T03:03:55.777Z,38.13
2022-12-11T03:04:07.889Z,36.78
2022-12-11T03:04:24.710Z,37.08
2022-12-11T03:04:36.940Z,37.38
2022-12-11T03:04:49.855Z,37.25
2022-12-11T03:05:01.811Z,35.88
2022-12-11T03:05:15.310Z,36.63
2022-12-11T03:05:27.936Z,36.85
2022-12-11T03:05:41.961Z,36.67
2022-12-11T03:05:54.146Z,36.33
2022-12-11T03:06:06.369Z,37.72
2022-12-11T03:06:21.884Z,39.05